Main page
METAR-TAF:

METAR-TAF

Airports :

Rovaniemi Airport

Rovaniemi, Finland

latitude: 66-34N, longitude: 025-50E, elevation: 197 m

Current weather observation

The report was made 8 minutes ago, at 03:20 UTC
Wind 7 kt from the Northwest
Temperature 6°C
Humidity 52%
Pressure 1028 hPa
Visibility 10 km or more
no clouds below 1500 m and no cumulonimbus

METAR: EFRO 270320Z AUTO 32007KT CAVOK 06/M03 Q1028

Time: 06:28 (03:28 UTC)

Forecast

The report was made 56 minutes ago, at 02:32 UTC
Forecast valid from 27 at 03 UTC to 28 at 03 UTC
Wind 7 kt from the North/Northwest
Visibility 10 km or more
no clouds below 1500 m and no cumulonimbus
Temporary
from 27 at 07 UTC to 27 at 12 UTC
Wind 13 kt from the North/Northwest with gusts up to 23 kt
Becoming
from 27 at 16 UTC to 27 at 19 UTC
Wind 7 kt from the West/Southwest

TAF: EFRO 270232Z 2703/2803 33007KT CAVOK TEMPO 2707/2712 33013G23KT BECMG 2716/2719 24007KT

Weather observations and forecasts of more than 4000 airports (METAR and TAF reports).

The available stations are represented by yellow and red dots on the map.

Hover mouse over dot to see the name of the station.

Then click to see weather observations and forecasts.

To change the map : click on the green buttons with a black cross to zoom in, on the green button with a dash to zoom out, or on the green arrows for adjacent maps.


METAR-TAF: